<?xml version="1.0" encoding="UTF-8" standalone="no" ?>
<gpx xmlns="http://www.topografix.com/GPX/1/1" xmlns:xsi="http://www.w3.org/2001/XMLSchema-instance" xsi:schemaLocation="http://www.topografix.com/GPX/1/1 http://www.topografix.com/GPX/1/1/gpx.xsd" version="1.1" creator="VisuGPX - https://www.visugpx.com">
  <metadata>
    <name>marche yves</name>
    <desc><![CDATA[vendredi 26 avril]]></desc>
  </metadata>
  <trk>
    <name><![CDATA[marche yves_1]]></name>
    <trkseg>
      <trkpt lat="43.9436" lon="0.54074">
        <ele>149</ele>
        <time>2013-04-26T06:16:38</time>
      </trkpt>
      <trkpt lat="43.9436" lon="0.54068">
        <ele>150</ele>
        <time>2013-04-26T06:17:38</time>
      </trkpt>
      <trkpt lat="43.9433" lon="0.54022">
        <ele>147</ele>
        <time>2013-04-26T06:18:39</time>
      </trkpt>
      <trkpt lat="43.9432" lon="0.53932">
        <ele>135</ele>
        <time>2013-04-26T06:19:39</time>
      </trkpt>
      <trkpt lat="43.9432" lon="0.5386">
        <ele>125</ele>
        <time>2013-04-26T06:20:39</time>
      </trkpt>
      <trkpt lat="43.9434" lon="0.53771">
        <ele>114</ele>
        <time>2013-04-26T06:21:40</time>
      </trkpt>
      <trkpt lat="43.9436" lon="0.53685">
        <ele>105</ele>
        <time>2013-04-26T06:22:40</time>
      </trkpt>
      <trkpt lat="43.9435" lon="0.53591">
        <ele>99</ele>
        <time>2013-04-26T06:23:41</time>
      </trkpt>
      <trkpt lat="43.9433" lon="0.53521">
        <ele>90</ele>
        <time>2013-04-26T06:24:41</time>
      </trkpt>
      <trkpt lat="43.943" lon="0.53432">
        <ele>83</ele>
        <time>2013-04-26T06:25:41</time>
      </trkpt>
      <trkpt lat="43.9427" lon="0.53338">
        <ele>82</ele>
        <time>2013-04-26T06:26:42</time>
      </trkpt>
      <trkpt lat="43.9434" lon="0.53295">
        <ele>82</ele>
        <time>2013-04-26T06:27:42</time>
      </trkpt>
      <trkpt lat="43.944" lon="0.5325">
        <ele>85</ele>
        <time>2013-04-26T06:28:42</time>
      </trkpt>
      <trkpt lat="43.9443" lon="0.53155">
        <ele>93</ele>
        <time>2013-04-26T06:29:43</time>
      </trkpt>
      <trkpt lat="43.9446" lon="0.53063">
        <ele>103</ele>
        <time>2013-04-26T06:30:43</time>
      </trkpt>
      <trkpt lat="43.9447" lon="0.52969">
        <ele>111</ele>
        <time>2013-04-26T06:31:43</time>
      </trkpt>
      <trkpt lat="43.9445" lon="0.52876">
        <ele>120</ele>
        <time>2013-04-26T06:32:44</time>
      </trkpt>
      <trkpt lat="43.9443" lon="0.52793">
        <ele>129</ele>
        <time>2013-04-26T06:33:44</time>
      </trkpt>
      <trkpt lat="43.9442" lon="0.52735">
        <ele>138</ele>
        <time>2013-04-26T06:34:44</time>
      </trkpt>
      <trkpt lat="43.9441" lon="0.52689">
        <ele>138</ele>
        <time>2013-04-26T06:35:45</time>
      </trkpt>
      <trkpt lat="43.944" lon="0.52592">
        <ele>144</ele>
        <time>2013-04-26T06:36:45</time>
      </trkpt>
      <trkpt lat="43.9436" lon="0.52517">
        <ele>148</ele>
        <time>2013-04-26T06:37:45</time>
      </trkpt>
      <trkpt lat="43.9435" lon="0.52489">
        <ele>150</ele>
        <time>2013-04-26T06:38:46</time>
      </trkpt>
      <trkpt lat="43.9436" lon="0.52401">
        <ele>152</ele>
        <time>2013-04-26T06:39:46</time>
      </trkpt>
      <trkpt lat="43.9431" lon="0.52353">
        <ele>152</ele>
        <time>2013-04-26T06:40:46</time>
      </trkpt>
      <trkpt lat="43.943" lon="0.52294">
        <ele>151</ele>
        <time>2013-04-26T06:41:47</time>
      </trkpt>
      <trkpt lat="43.943" lon="0.52216">
        <ele>143</ele>
        <time>2013-04-26T06:42:47</time>
      </trkpt>
      <trkpt lat="43.943" lon="0.52129">
        <ele>133</ele>
        <time>2013-04-26T06:43:47</time>
      </trkpt>
      <trkpt lat="43.9432" lon="0.52065">
        <ele>124</ele>
        <time>2013-04-26T06:44:48</time>
      </trkpt>
      <trkpt lat="43.9437" lon="0.52043">
        <ele>114</ele>
        <time>2013-04-26T06:45:48</time>
      </trkpt>
      <trkpt lat="43.9442" lon="0.52062">
        <ele>109</ele>
        <time>2013-04-26T06:46:48</time>
      </trkpt>
      <trkpt lat="43.9446" lon="0.52116">
        <ele>107</ele>
        <time>2013-04-26T06:47:49</time>
      </trkpt>
      <trkpt lat="43.9451" lon="0.52158">
        <ele>102</ele>
        <time>2013-04-26T06:48:49</time>
      </trkpt>
      <trkpt lat="43.9455" lon="0.52152">
        <ele>101</ele>
        <time>2013-04-26T06:49:49</time>
      </trkpt>
      <trkpt lat="43.9457" lon="0.52088">
        <ele>106</ele>
        <time>2013-04-26T06:50:50</time>
      </trkpt>
      <trkpt lat="43.946" lon="0.5205">
        <ele>114</ele>
        <time>2013-04-26T06:51:50</time>
      </trkpt>
      <trkpt lat="43.9461" lon="0.52003">
        <ele>120</ele>
        <time>2013-04-26T06:52:50</time>
      </trkpt>
      <trkpt lat="43.946" lon="0.51945">
        <ele>128</ele>
        <time>2013-04-26T06:53:51</time>
      </trkpt>
      <trkpt lat="43.946" lon="0.51868">
        <ele>133</ele>
        <time>2013-04-26T06:54:51</time>
      </trkpt>
      <trkpt lat="43.9459" lon="0.5178">
        <ele>138</ele>
        <time>2013-04-26T06:55:51</time>
      </trkpt>
      <trkpt lat="43.946" lon="0.51702">
        <ele>143</ele>
        <time>2013-04-26T06:56:52</time>
      </trkpt>
      <trkpt lat="43.9461" lon="0.51664">
        <ele>145</ele>
        <time>2013-04-26T06:57:52</time>
      </trkpt>
      <trkpt lat="43.9464" lon="0.51613">
        <ele>149</ele>
        <time>2013-04-26T06:58:52</time>
      </trkpt>
      <trkpt lat="43.9467" lon="0.51545">
        <ele>155</ele>
        <time>2013-04-26T06:59:53</time>
      </trkpt>
      <trkpt lat="43.9469" lon="0.51462">
        <ele>161</ele>
        <time>2013-04-26T07:00:53</time>
      </trkpt>
      <trkpt lat="43.947" lon="0.51376">
        <ele>164</ele>
        <time>2013-04-26T07:01:53</time>
      </trkpt>
      <trkpt lat="43.9472" lon="0.51288">
        <ele>165</ele>
        <time>2013-04-26T07:02:54</time>
      </trkpt>
      <trkpt lat="43.9474" lon="0.51227">
        <ele>165</ele>
        <time>2013-04-26T07:03:54</time>
      </trkpt>
      <trkpt lat="43.9477" lon="0.51235">
        <ele>167</ele>
        <time>2013-04-26T07:04:55</time>
      </trkpt>
      <trkpt lat="43.9482" lon="0.5129">
        <ele>174</ele>
        <time>2013-04-26T07:05:55</time>
      </trkpt>
      <trkpt lat="43.9488" lon="0.51352">
        <ele>166</ele>
        <time>2013-04-26T07:06:55</time>
      </trkpt>
      <trkpt lat="43.949" lon="0.51442">
        <ele>158</ele>
        <time>2013-04-26T07:07:56</time>
      </trkpt>
      <trkpt lat="43.9494" lon="0.51524">
        <ele>154</ele>
        <time>2013-04-26T07:08:56</time>
      </trkpt>
      <trkpt lat="43.9499" lon="0.51592">
        <ele>155</ele>
        <time>2013-04-26T07:09:56</time>
      </trkpt>
      <trkpt lat="43.95" lon="0.51677">
        <ele>156</ele>
        <time>2013-04-26T07:10:57</time>
      </trkpt>
      <trkpt lat="43.95" lon="0.51773">
        <ele>158</ele>
        <time>2013-04-26T07:11:57</time>
      </trkpt>
      <trkpt lat="43.9499" lon="0.51873">
        <ele>159</ele>
        <time>2013-04-26T07:12:57</time>
      </trkpt>
      <trkpt lat="43.9501" lon="0.51965">
        <ele>157</ele>
        <time>2013-04-26T07:13:58</time>
      </trkpt>
      <trkpt lat="43.95" lon="0.52055">
        <ele>150</ele>
        <time>2013-04-26T07:14:58</time>
      </trkpt>
      <trkpt lat="43.9498" lon="0.52146">
        <ele>147</ele>
        <time>2013-04-26T07:15:58</time>
      </trkpt>
    </trkseg>
  </trk>
</gpx>